Bladen County Hospital, NC

3:55 PM EDT on July 25, 2014 (GMT -0400)
Elizabethtown (KEYF) Elev 131 ft | 34.60 °N, 78.58 °W | Change Station

Current weather conditions updated 20 minutes ago

Overcast
Overcast
83 °F
Feels Like 87 °F
N
7
Wind Variable Wind from ESE

Today is forecast to be Much Cooler than yesterday.

Today
High -- | Low -- °F
--% Chance of Precip.
Yesterday
High -- | Low -- °F
Precip. -- in
6:19 AM 8:22 PM
Waning Crescent, 1% visible
Pressure 30.01 in
Visibility 10.0 miles
Clouds Scattered Clouds 2700 ft
Overcast 3300 ft
Heat Index 87 °F
Dew Point 70 °F
Humidity 67%
Rainfall 0.00 in
Snow Depth Not available.
UV 3 out of 12
Pollen 3.00 out of 12
Air Quality Not available.
Flu Activity Not available.
METAR KEYF 251935Z AUTO 12006KT 10SM SCT027 OVC033 28/21 A3001 RMK AO2 T02810214

More Conditions Fewer Conditions

Pressure 30.01 in
Visibility 10.0 miles
Clouds Scattered Clouds 2700 ft
Overcast 3300 ft
Heat Index 87 °F
Dew Point 70 °F
Humidity 67%
Rainfall 0.00 in
Snow Depth Not available.
UV 3 out of 12
Pollen 3.00 out of 12
Air Quality Not available.
Flu Activity Not available.
METAR KEYF 251935Z AUTO 12006KT 10SM SCT027 OVC033 28/21 A3001 RMK AO2 T02810214

More Conditions Fewer Conditions

10-Day Weather Forecast

Almanac

Astronomy

Jul. 25, 2014 Rise Set
Actual Time 6:19 AM EDT 8:22 PM EDT
Civil Twilight 5:51 AM EDT 8:50 PM EDT
Nautical Twilight 5:17 AM EDT 9:24 PM EDT
Astronomical Twilight 4:40 AM EDT 10:00 PM EDT
Moon 5:15 AM EDT 7:20 PM EDT
Length of Visible Light 14h 58m
Length of Day
14h 02m
Tomorrow will be 1m 26s shorter.
Waning Crescent, 1% of the Moon is Illuminated
Today
Waning Crescent
Jul 26
New
Aug 3
First Quarter
Aug 10
Full
Aug 17
Last Quarter

Today's Extremes

State Highs State Lows

Community

WunderPhotos

Upload Photos

1,737,393 photos uploaded!

Nearby

Snow Depth

Station Depth Elevation
No new snow has been reported.

Earthquake Activity

City Distance Mag. Time & Date
No recent earthquake activity has been reported nearby.
Minimum magnitude displayed is 2.5.

Coastal Water Temperatures

Place Temperature
No Stations Reporting

Nearby Weather Stations

Station Location Temp. Heat Index Dew Point Humidity Wind Precip. Elev Updated Type
CCSkywatch, Whiteville, NC 84.7 °F 92 °F 74 °F 70% South  at  2.0 mph 0.00 in / hr 91 ft 3:55 PM EDT Rapid Fire
Fayetteville Road, Lumberton, NC 82.6 °F 89 °F 74 °F 75% ESE  at  0.0 mph 0.00 in / hr 126 ft 3:55 PM EDT Rapid Fire
Saint Pauls, St. Pauls, NC 81.8 °F 86 °F 71 °F 70% NE  at  1.0 mph 0.00 in / hr 190 ft 3:48 PM EDT Normal

Show More Stations Show Fewer Stations